• Join FlightAware (Why Join?)
  • Login
  • US Flag 
11:42PM EDT


 

Airport Tracker/Info


-or-


 

Live Flight TrackerFlight Track Log ✈ N789EX ✈ 31-Oct-2013 ✈ KBFI - KMWH

Flight Track Log - Related Links

Times and Time Zones

All times are in EDT time to prevent confusion due to time zone crossing. See the N789EX flight status page for this flight to view local times or setup timezone preferences in your user account.

Time Position Orientation Groundspeed Altitude Reporting Facility
EDT Latitude Longitude Course Direction KTS MPH feet Rate Location/Type
12:23PM 47.5080 -122.2820 143° Southeast 215 247 1,400  Level FlightAware
12:23PM 47.4900 -122.2620 143° Southeast 215 247 1,400 3,540 Level FlightAware
12:24PM 47.4740 -122.1450 101° East 267 307 5,800 4,020 Climbing FlightAware
12:25PM 47.5270 -122.1390 North 262 302 7,700 3,420 Climbing FlightAware
12:26PM 47.5680 -122.1530 347° North 274 315 10,400 4,680 Climbing FlightAware
12:26PM 47.6190 -122.1720 346° North 255 293 13,700 4,500 Climbing FlightAware
12:27PM 47.6630 -122.1870 347° North 250 288 16,600 3,780 Climbing FlightAware
12:28PM 47.7120 -122.2050 346° North 260 299 19,000 3,000 Climbing FlightAware
12:28PM 47.7650 -122.2240 346° North 285 328 20,900 2,100 Climbing FlightAware
12:29PM 47.8090 -122.2390 347° North 324 373 21,600 2,100 Climbing FlightAware
12:30PM 47.9060 -122.2690 348° North 366 421 24,200 2,580 Climbing FlightAware
12:31PM 47.9640 -122.2460 15° North 413 475 25,800 2,640 Climbing FlightAware
12:31PM 48.0180 -122.2070 26° Northeast 421 484 27,100 2,220 Climbing FlightAware
12:32PM 48.0880 -122.1270 37° Northeast 477 549 28,600 2,160 Climbing FlightAware
12:32PM 48.1150 -122.0500 62° Northeast 512 589 29,600 1,920 Climbing FlightAware
12:33PM 48.1230 -121.9730 81° East 546 628 30,100 1,560 Climbing FlightAware
12:33PM 48.1150 -121.8030 94° East 565 650 31,300 1,500 Climbing FlightAware
12:34PM 48.1060 -121.6450 95° East 576 663 32,300 1,500 Climbing FlightAware
12:34PM 48.1000 -121.5290 94° East 581 669 33,100 1,860 Climbing FlightAware
12:35PM 48.0920 -121.3680 94° East 576 663 34,500 2,580 Climbing FlightAware
12:36PM 48.0860 -121.2520 94° East 556 640 36,100 2,580 Climbing FlightAware
12:36PM 48.0790 -121.1150 94° East 548 631 37,300 1,320 Climbing FlightAware
12:37PM 48.0700 -120.9510 95° East 550 633 37,900 360 Climbing FlightAware
12:38PM 48.0610 -120.7870 95° East 573 659 37,900  Level FlightAware
12:38PM 48.0520 -120.6300 95° East 586 674 37,900  Level FlightAware
12:39PM 48.0450 -120.5040 95° East 594 684 37,900  Level FlightAware
12:39PM 48.0360 -120.3520 95° East 595 685 37,900  Level FlightAware
12:40PM 48.0260 -120.1980 95° East 596 686 37,900  Level FlightAware
12:41PM 48.0150 -120.0170 95° East 591 680 37,900  Level FlightAware
12:42PM 47.9990 -119.7710 95° East 534 615 38,000  Climbing FlightAware
12:43PM 47.9900 -119.6300 95° East 533 613 37,900 -120 Descending FlightAware
12:43PM 47.9820 -119.5110 96° East 544 626 37,900 60 Level FlightAware
12:44PM 47.9740 -119.4000 96° East 536 617 38,000  Climbing FlightAware
12:44PM 47.9650 -119.2740 96° East 537 618 37,900 -120 Descending FlightAware
12:45PM 47.9550 -119.1300 96° East 542 624 37,900 120 Level FlightAware
12:46PM 47.9430 -118.9630 96° East 518 596 38,100 60 Climbing FlightAware
12:46PM 47.9330 -118.8350 97° East 485 558 38,000  Descending FlightAware
12:47PM 47.9210 -118.6660 96° East 458 527 38,100 60 Climbing FlightAware
12:48PM 47.9120 -118.5530 97° East 453 521 38,100  Level FlightAware
12:48PM 47.9020 -118.4240 97° East 452 520 38,100  Level FlightAware
12:49PM 47.8930 -118.3090 97° East 449 517 38,100  Level FlightAware
12:50PM 47.8860 -118.2070 96° East 449 517 38,100  Level FlightAware
12:50PM 47.8770 -118.0810 96° East 449 517 38,100  Level FlightAware
12:51PM 47.8670 -117.9350 96° East 449 517 38,100  Level FlightAware
12:52PM 47.8620 -117.8690 96° East 449 517 38,100  Level FlightAware
12:52PM 47.8560 -117.7800 96° East 449 517 38,100  Level FlightAware
12:53PM 47.8470 -117.6490 96° East 449 517 38,100  Level FlightAware
12:54PM 47.8400 -117.5550 96° East 449 517 38,100  Level FlightAware
12:54PM 47.8340 -117.4660 96° East 449 517 38,100  Level FlightAware
12:55PM 47.8270 -117.3720 96° East 449 517 38,100  Level FlightAware
12:56PM 47.8180 -117.2460 96° East 449 517 38,100  Level FlightAware
12:56PM 47.8110 -117.1520 96° East 449 517 38,100  Level FlightAware
12:57PM 47.8050 -117.0560 95° East 449 517 38,100  Level FlightAware
12:57PM 47.7980 -116.9610 96° East 449 517 38,100  Level FlightAware
12:58PM 47.7910 -116.8650 96° East 449 517 38,100  Level FlightAware
12:59PM 47.7820 -116.7370 96° East 449 517 38,100  Level FlightAware
12:59PM 47.7800 -116.7050 95° East 449 517 38,100 -14,640 Level FlightAware
01:00PM 47.7697 -116.2928 95° East 526 605 25,700 -9,180 Descending Seattle Center
01:01PM 47.8569 -116.3089 353° North 419 482 22,800 -2,760 Descending Seattle Center
01:02PM 47.8567 -116.4556 270° West 387 445 20,100 -2,580 Descending Seattle Center
01:03PM 47.8403 -116.5989 260° West 361 415 17,600 -2,340 Descending Seattle Center
01:04PM 47.8578 -116.7347 281° West 338 389 15,400 -2,400 Descending Seattle Center
01:05PM 47.8806 -116.8631 285° West 326 375 12,800 -1,620 Descending Seattle Center
01:06PM 47.9081 -116.9808 289° West 304 350 12,200 -300 Descending Seattle Center
01:07PM 47.9314 -117.0903 288° West 285 328 12,200  Level Seattle Center
01:08PM 47.9589 -117.2364 286° West 304 350 12,200 -1,080 Level Seattle Center
01:09PM 48.0064 -117.3406 304° West 305 351 10,100 -1,140 Descending Seattle Center
01:10PM 48.0181 -117.4594 278° West 290 334 9,900 -120 Descending Seattle Center
01:11PM 48.0308 -117.5472 282° West 224 258 9,900  Level Seattle Center
01:12PM 48.0397 -117.6072 283° West 154 177 9,900  Level Seattle Center
01:13PM 48.0419 -117.6619 273° West 135 155 9,900  Level Seattle Center
01:14PM 48.0397 -117.7194 267° West 138 159 9,900  Level Seattle Center
01:15PM 48.0322 -117.7775 259° West 142 163 9,900  Level Seattle Center
01:16PM 48.0272 -117.8344 263° West 140 161 9,900  Level Seattle Center
01:17PM 48.0244 -117.8906 266° West 136 157 9,900  Level Seattle Center
01:18PM 48.0197 -117.9467 263° West 136 157 9,900 60 Level Seattle Center
01:19PM 48.0128 -118.0156 261° West 139 160 10,100  Climbing Seattle Center
01:20PM 48.0069 -118.0719 261° West 139 160 10,000 -180 Descending Seattle Center
01:21PM 48.0058 -118.1297 268° West 140 161 9,800 -60 Descending Seattle Center
01:22PM 48.0119 -118.1872 279° West 140 161 9,900 60 Climbing Seattle Center
01:23PM 48.0183 -118.2447 279° West 140 161 10,000  Climbing Seattle Center
01:24PM 48.0131 -118.3053 263° West 146 168 10,000 -60 Level Seattle Center
01:25PM 48.0064 -118.3639 260° West 144 166 9,900 -120 Descending Seattle Center
01:26PM 48.0003 -118.4244 261° West 147 169 9,800  Descending Seattle Center
01:27PM 47.9906 -118.4861 257° West 153 176 10,000  Climbing Seattle Center
01:28PM 47.9861 -118.5531 264° West 162 186 9,900  Descending Seattle Center
01:29PM 47.9850 -118.6189 269° West 160 184 10,000 120 Climbing Seattle Center
01:30PM 47.9822 -118.6847 266° West 159 183 10,200  Climbing Seattle Center
01:31PM 47.9678 -118.7639 255° West 165 190 10,000 -60 Descending Seattle Center
01:32PM 47.9675 -118.8297 270° West 162 186 10,100  Climbing Seattle Center
01:33PM 47.9703 -118.8972 274° West 164 189 10,100  Level Seattle Center
01:34PM 47.9764 -118.9628 278° West 162 186 10,200 -120 Climbing Seattle Center
01:35PM 47.9803 -119.0336 275° West 171 197 9,900 -120 Descending Seattle Center
01:36PM 47.9758 -119.1422 267° West 259 298 10,000 60 Climbing Seattle Center
01:37PM 47.9731 -119.2528 268° West 268 308 10,100 60 Climbing Seattle Center
01:38PM 47.9706 -119.3622 268° West 267 307 10,200 -120 Climbing Seattle Center
01:39PM 47.9714 -119.4739 271° West 269 310 9,900 -180 Descending Seattle Center
01:40PM 47.9719 -119.5850 270° West 269 310 9,900  Level Seattle Center
01:41PM 47.9719 -119.6931 270° West 264 304 9,900  Level Seattle Center
01:42PM 47.9744 -119.8028 272° West 265 305 9,900  Level Seattle Center
01:43PM 47.9803 -119.9147 274° West 271 312 9,900  Level Seattle Center
01:44PM 47.9872 -120.0247 275° West 270 311 10,000  Climbing Seattle Center
01:45PM 47.9122 -120.0108 173° South 294 338 9,900 -60 Descending Seattle Center
01:46PM 47.9064 -119.8867 94° East 301 346 9,900  Level Seattle Center
01:48PM 47.9022 -119.7589 93° East 307 353 9,900  Level Seattle Center
01:49PM 47.8961 -119.6325 94° East 307 353 9,900  Level Seattle Center
01:50PM 47.8919 -119.5075 93° East 304 350 9,900  Level Seattle Center
01:51PM 47.8900 -119.3825 91° East 303 349 9,900  Level Seattle Center
01:52PM 47.8886 -119.2564 91° East 305 351 9,900  Level Seattle Center
01:53PM 47.8842 -119.1317 93° East 304 350 9,900  Level Seattle Center
01:54PM 47.8797 -119.0033 93° East 310 357 9,900  Level Seattle Center
01:55PM 47.8764 -118.8772 92° East 307 353 9,900 60 Level Seattle Center
01:56PM 47.8708 -118.7511 94° East 306 352 10,100 120 Climbing Seattle Center
01:57PM 47.8664 -118.6242 93° East 309 356 10,200  Climbing Seattle Center
01:58PM 47.8614 -118.4950 93° East 313 360 10,200 -180 Level Seattle Center
01:59PM 47.8531 -118.3442 95° East 306 352 9,900 -180 Descending Seattle Center
02:00PM 47.7814 -118.3450 180° South 302 348 9,900  Level Seattle Center
02:01PM 47.7853 -118.4531 273° West 264 304 9,900 60 Level Seattle Center
02:02PM 47.7989 -118.5589 281° West 262 302 10,100 60 Climbing Seattle Center
02:03PM 47.8161 -118.6642 284° West 262 302 10,100 -60 Level Seattle Center
02:04PM 47.8361 -118.7883 284° West 309 356 10,000  Descending Seattle Center
02:05PM 47.8597 -118.9172 285° West 323 372 10,100 -120 Climbing Seattle Center
02:06PM 47.8800 -119.0472 283° West 323 372 9,800 -120 Descending Seattle Center
02:07PM 47.8939 -119.1767 279° West 319 367 9,900  Climbing Seattle Center
02:08PM 47.9042 -119.3081 277° West 320 368 9,900  Level Seattle Center
02:09PM 47.9156 -119.4408 277° West 323 372 9,900  Level Seattle Center
02:10PM 47.9272 -119.5731 278° West 322 371 9,900  Level Seattle Center
02:11PM 47.9375 -119.7067 277° West 325 374 9,900  Level Seattle Center
02:12PM 47.9511 -119.8658 277° West 324 373 9,900  Level Seattle Center
02:13PM 47.9442 -119.9967 266° West 334 384 10,000  Climbing Seattle Center
02:14PM 47.8683 -119.9419 154° Southeast 374 430 10,000 -120 Level Seattle Center
02:15PM 47.8656 -119.7936 92° East 358 412 9,800  Descending Seattle Center
02:16PM 47.8678 -119.6472 89° East 357 411 10,000 120 Climbing Seattle Center
02:17PM 47.8717 -119.5000 88° East 356 410 10,100  Climbing Seattle Center
02:18PM 47.8775 -119.3542 87° East 356 410 10,000 -60 Descending Seattle Center
02:19PM 47.8819 -119.2078 87° East 355 409 10,000 -60 Level Seattle Center
02:20PM 47.8858 -119.0583 88° East 359 413 9,900 -60 Descending Seattle Center
02:21PM 47.8656 -118.8997 101° East 391 450 9,900  Level Seattle Center
02:22PM 47.8489 -118.7286 98° East 416 479 10,000 60 Climbing Seattle Center
02:23PM 47.8317 -118.5536 98° East 427 491 10,100 60 Climbing Seattle Center
02:24PM 47.8153 -118.3789 98° East 428 493 10,200 -120 Climbing Seattle Center
02:25PM 47.7964 -118.1692 98° East 427 491 9,900 -180 Descending Seattle Center
02:26PM 47.7794 -117.9953 98° East 426 490 9,900  Level Seattle Center
02:27PM 47.7633 -117.8244 98° East 420 483 9,900 720 Level Seattle Center
02:28PM 47.7236 -117.6753 112° Southeast 393 452 11,400 240 Climbing Seattle Center
02:29PM 47.6508 -117.7289 206° Southwest 364 419 10,400 -780 Descending Seattle Center
02:30PM 47.6633 -117.8747 277° West 359 413 9,900 -300 Descending Seattle Center
02:31PM 47.6819 -118.0272 280° West 374 430 9,900  Level Seattle Center
02:32PM 47.7006 -118.1789 280° West 375 432 9,900  Level Seattle Center
02:33PM 47.7194 -118.3306 281° West 376 433 10,000 -60 Climbing Seattle Center
02:34PM 47.7372 -118.4828 280° West 376 433 9,800 -120 Descending Seattle Center
02:35PM 47.7547 -118.6350 280° West 376 433 9,800 120 Level Seattle Center
02:36PM 47.7783 -118.7864 283° West 377 434 10,100  Climbing Seattle Center
02:37PM 47.8181 -118.9656 288° West 382 440 9,900 -120 Descending Seattle Center
02:38PM 47.8578 -119.1086 293° West 377 434 9,900  Level Seattle Center
02:39PM 47.8753 -119.2603 280° West 381 438 10,000 2,100 Climbing Seattle Center
02:44PM 47.8990 -120.0160 280° West 361 415 22,600 2,520 Climbing FlightAware
02:45PM 47.9050 -120.1310 274° West 367 422 24,400 2,460 Climbing FlightAware
02:46PM 47.9070 -120.2120 272° West 364 419 25,800 2,940 Climbing FlightAware
02:46PM 47.9070 -120.2870 270° West 350 403 27,500 2,160 Climbing FlightAware
02:47PM 47.9080 -120.3530 271° West 314 361 28,000 360 Climbing FlightAware
02:47PM 47.9080 -120.4440 270° West 345 397 28,000 -120 Level FlightAware
02:48PM 47.9080 -120.5200 270° West 295 339 27,900 -240 Descending FlightAware
02:48PM 47.9080 -120.5520 270° West 294 338 27,800  Descending FlightAware
02:49PM 47.9070 -120.6540 269° West 292 336 27,900 60 Climbing FlightAware
02:50PM 47.9090 -120.7950 271° West 293 337 28,000  Climbing FlightAware
02:51PM 47.9160 -120.8640 279° West 292 336 28,000  Level FlightAware
02:52PM 47.9310 -121.0140 279° West 287 330 28,000  Level FlightAware
02:52PM 47.9370 -121.0630 280° West 286 329 28,000  Level FlightAware
02:53PM 47.9500 -121.1400 284° West 285 328 28,000  Level FlightAware
02:54PM 47.9610 -121.2060 284° West 285 328 28,000  Level FlightAware
02:54PM 47.9720 -121.2730 284° West 285 328 28,000  Level FlightAware
02:55PM 47.9850 -121.3490 284° West 287 330 28,000  Level FlightAware
02:55PM 47.9950 -121.4080 284° West 287 330 28,000  Level FlightAware
02:56PM 48.0060 -121.4670 286° West 286 329 28,000  Level FlightAware
02:57PM 48.0200 -121.5440 285° West 290 334 28,000 -120 Level FlightAware
02:57PM 48.0350 -121.6210 286° West 289 333 27,900 -120 Descending FlightAware
02:58PM 48.0500 -121.6990 286° West 289 333 27,900  Level FlightAware
02:59PM 48.0660 -121.7780 287° West 288 331 27,900  Level FlightAware
02:59PM 48.0810 -121.8620 285° West 289 333 27,900  Level FlightAware
03:00PM 48.0920 -121.9340 283° West 289 333 27,900  Level FlightAware
03:00PM 48.0990 -121.9900 281° West 290 334 27,900  Level FlightAware
03:01PM 48.1120 -122.0760 283° West 290 334 27,900 60 Level FlightAware
03:02PM 48.0890 -122.1340 239° Southwest 368 423 28,000 60 Climbing FlightAware
03:02PM 48.0160 -122.1080 167° South 473 544 28,000  Level FlightAware
03:03PM 47.9910 -121.9760 106° East 498 573 28,000 60 Level FlightAware
03:04PM 48.0050 -121.7480 85° East 535 616 28,200 60 Climbing FlightAware
03:05PM 48.0150 -121.5980 84° East 536 617 28,200 -120 Level FlightAware
03:06PM 48.0310 -121.3440 85° East 535 616 28,000 -180 Descending FlightAware
03:06PM 48.0340 -121.2700 87° East 544 626 28,000  Level FlightAware
03:08PM 48.0290 -120.9890 91° East 550 633 28,000  Level FlightAware
03:08PM 48.0270 -120.8400 91° East 548 631 28,000  Level FlightAware
03:09PM 48.0250 -120.7300 92° East 547 629 28,000  Level FlightAware
03:09PM 48.0230 -120.6200 92° East 547 629 28,000  Level FlightAware
03:10PM 48.0150 -120.3710 93° East 545 627 28,000  Level FlightAware
03:11PM 48.0130 -120.3120 93° East 545 627 28,000  Level FlightAware
03:11PM 48.0070 -120.1620 93° East 548 631 28,000  Level FlightAware
03:12PM 48.0010 -119.9880 93° East 550 633 28,000 60 Level FlightAware
03:13PM 47.9970 -119.8500 92° East 548 631 28,100 -120 Climbing FlightAware
03:13PM 47.9910 -119.7040 93° East 546 628 27,900 -180 Descending FlightAware
03:14PM 47.9850 -119.5570 93° East 546 628 27,900 60 Level FlightAware
03:15PM 47.9770 -119.3530 93° East 545 627 28,000  Climbing FlightAware
03:16PM 47.9690 -119.1230 93° East 545 627 28,000  Level FlightAware
03:17PM 47.9670 -119.0460 92° East 545 627 28,000  Level FlightAware
03:17PM 47.9620 -118.9310 94° East 545 627 28,000  Level FlightAware
03:18PM 47.9580 -118.8130 93° East 545 627 28,000  Level FlightAware
03:18PM 47.9560 -118.7360 92° East 545 627 28,000  Level FlightAware
03:19PM 47.8942 -118.4147 92° East 603 694 28,000  Level Seattle Center
03:20PM 47.8767 -118.1600 96° East 617 710 28,000  Level Seattle Center
03:21PM 47.8578 -117.9058 96° East 619 712 28,100 -60 Climbing Seattle Center
03:22PM 47.8394 -117.6492 96° East 623 717 27,900 -60 Descending Seattle Center
03:23PM 47.8247 -117.3931 95° East 620 713 28,000  Climbing Seattle Center
03:24PM 47.8089 -117.1344 95° East 618 711 28,000 -60 Level Seattle Center
03:25PM 47.7911 -116.8750 96° East 619 712 27,900  Descending Seattle Center
03:26PM 47.7742 -116.6161 95° East 620 713 28,000  Climbing Seattle Center
03:27PM 47.7836 -116.3247 87° East 601 692 28,000  Level Seattle Center
03:28PM 47.8964 -116.2872 13° North 510 587 28,000 -60 Level Seattle Center
03:29PM 47.9203 -116.4553 282° West 469 540 27,900 -60 Descending Seattle Center
03:30PM 47.9072 -116.6450 264° West 466 536 27,900  Level Seattle Center
03:31PM 47.9031 -116.8344 268° West 463 533 28,000  Climbing Seattle Center
03:32PM 47.8997 -117.0239 269° West 463 533 28,000 60 Level Seattle Center
03:33PM 47.8939 -117.2111 267° West 461 531 28,200 -60 Climbing Seattle Center
03:34PM 47.8875 -117.3997 267° West 462 532 27,900  Descending Seattle Center
03:35PM 47.8794 -117.6275 267° West 463 533 28,200  Climbing Seattle Center
03:36PM 47.8711 -117.8164 266° West 463 533 28,000 -120 Descending Seattle Center
03:37PM 47.8631 -118.0039 266° West 458 527 28,000 180 Level Seattle Center
03:38PM 47.8614 -118.1886 269° West 449 517 28,400 300 Climbing Seattle Center
03:43PM 47.9470 -119.0760 269° West 438 504 30,000 240 Climbing FlightAware
03:44PM 47.9550 -119.1860 276° West 440 506 30,000  Level FlightAware
03:44PM 47.9630 -119.2980 276° West 446 513 30,000  Level FlightAware
03:45PM 47.9700 -119.3880 277° West 448 516 30,000  Level FlightAware
03:46PM 47.9780 -119.5020 276° West 445 512 30,000  Level FlightAware
03:46PM 47.9850 -119.5980 276° West 445 512 30,000  Level FlightAware
03:47PM 47.9930 -119.7010 277° West 444 511 30,000  Level FlightAware
03:47PM 47.9990 -119.7860 276° West 441 507 30,000  Level FlightAware
03:48PM 48.0070 -119.8950 276° West 440 506 30,000  Level FlightAware
03:48PM 48.0150 -119.9940 277° West 444 511 30,000  Level FlightAware
03:49PM 48.0240 -120.1250 276° West 442 509 30,000  Level FlightAware
03:50PM 48.0330 -120.2450 276° West 444 511 30,000  Level FlightAware
03:50PM 48.0420 -120.3690 276° West 446 513 30,000  Level FlightAware
03:51PM 48.0530 -120.5060 277° West 446 513 30,000  Level FlightAware
03:52PM 48.0600 -120.6010 276° West 446 513 30,000  Level FlightAware
03:52PM 48.0710 -120.7490 276° West 443 510 30,000  Level FlightAware
03:53PM 48.0800 -120.8570 277° West 446 513 30,000  Level FlightAware
03:54PM 48.0880 -120.9670 276° West 443 510 30,000 60 Level FlightAware
03:55PM 48.1030 -121.1520 277° West 442 509 30,100 1,380 Climbing FlightAware
03:56PM 48.1180 -121.3450 277° West 407 468 33,000 1,860 Climbing FlightAware
03:56PM 48.1220 -121.4120 275° West 414 476 33,000 -120 Level FlightAware
03:57PM 48.0790 -121.5170 239° Southwest 500 575 32,900  Descending FlightAware
03:57PM 48.0410 -121.5290 192° South 541 623 33,000  Climbing FlightAware
03:58PM 47.9330 -121.4280 148° Southeast 612 704 32,900  Descending FlightAware
03:59PM 47.8990 -121.2730 108° East 595 685 33,000 60 Climbing FlightAware
03:59PM 47.9000 -121.1500 89° East 594 684 33,000  Level FlightAware
04:00PM 47.9000 -120.9850 90° East 593 682 33,000  Level FlightAware
04:00PM 47.9010 -120.8400 89° East 592 681 33,000  Level FlightAware
04:01PM 47.9020 -120.6710 89° East 589 678 33,000  Level FlightAware
04:02PM 47.9020 -120.5050 90° East 591 680 33,000  Level FlightAware
04:02PM 47.9030 -120.3480 89° East 590 679 33,000  Level FlightAware
04:03PM 47.9040 -120.1900 89° East 587 676 33,000  Level FlightAware
04:04PM 47.9060 -119.9310 89° East 589 678 33,000  Level FlightAware
04:05PM 47.9080 -119.6490 89° East 591 680 33,000  Level FlightAware
04:06PM 47.9090 -119.5200 89° East 588 677 33,000  Level FlightAware
04:07PM 47.9100 -119.3240 89° East 590 679 33,000  Level FlightAware
04:07PM 47.9110 -119.1940 89° East 588 677 33,000  Level FlightAware
04:08PM 47.9130 -119.0410 89° East 590 679 33,000  Level FlightAware
04:08PM 47.9140 -118.8930 89° East 587 676 33,000  Level FlightAware
04:09PM 47.9150 -118.8040 89° East 587 676 33,000 -1,140 Level FlightAware
04:10PM 47.9140 -118.6310 90° East 579 666 31,700 -1,020 Descending FlightAware
04:10PM 47.9140 -118.5090 90° East 579 666 31,700  Level FlightAware
04:11PM 47.9140 -118.4240 90° East 579 666 31,700  Level FlightAware
04:11PM 47.9140 -118.2950 90° East 579 666 31,700  Level FlightAware
04:12PM 47.9140 -118.1720 90° East 579 666 31,700  Level FlightAware
04:12PM 47.9140 -118.0910 90° East 579 666 31,700  Level FlightAware
04:13PM 47.9140 -117.8940 90° East 579 666 31,700  Level FlightAware
04:14PM 47.9140 -117.6830 90° East 579 666 31,700  Level FlightAware
04:15PM 47.9140 -117.6020 90° East 579 666 31,700  Level FlightAware
04:15PM 47.9140 -117.4350 90° East 579 666 31,700  Level FlightAware
04:16PM 47.9140 -117.3160 90° East 579 666 31,700  Level FlightAware
04:17PM 47.9140 -117.1940 90° East 579 666 31,700  Level FlightAware
04:18PM 47.9140 -116.9900 90° East 579 666 31,700  Level FlightAware
04:19PM 47.9140 -116.7830 90° East 579 666 31,700 -240 Level FlightAware
04:27PM 47.7899 -117.3333 North  Level FlightAware Approximate
04:28PM 47.8545 -117.3333 360° North  Level FlightAware Approximate
04:29PM 47.9191 -117.3333 360° North  Level FlightAware Approximate
04:30PM 47.9837 -117.3333 360° North  Level FlightAware Approximate
04:31PM 48.0063 -117.4049 278° West  Level FlightAware Approximate
04:32PM 48.0147 -117.5006 277° West  Level FlightAware Approximate
04:33PM 48.0230 -117.5964 277° West  Level FlightAware Approximate
04:34PM 48.0312 -117.6921 277° West  Level FlightAware Approximate
04:35PM 48.0233 -117.7870 258° West  Level FlightAware Approximate
04:36PM 48.0144 -117.8824 266° West  Level FlightAware Approximate
04:37PM 48.0099 -117.9787 266° West  Level FlightAware Approximate
04:38PM 48.0053 -118.0750 266° West  Level FlightAware Approximate
04:39PM 48.0006 -118.1713 266° West  Level FlightAware Approximate
04:40PM 47.9969 -118.2676 267° West  Level FlightAware Approximate
04:41PM 47.9933 -118.3640 267° West  Level FlightAware Approximate
04:42PM 47.9895 -118.4603 267° West  Level FlightAware Approximate
04:43PM 47.9857 -118.5567 267° West  Level FlightAware Approximate
04:44PM 47.9798 -118.6527 262° West  Level FlightAware Approximate
04:45PM 47.9702 -118.7481 262° West  Level FlightAware Approximate
04:46PM 47.9667 -118.8442 270° West  Level FlightAware Approximate
04:47PM 47.9667 -118.9406 270° West  Level FlightAware Approximate
04:48PM 47.9668 -119.0371 270° West  Level FlightAware Approximate
04:49PM 47.9669 -119.1336 270° West  Level FlightAware Approximate
04:50PM 47.9669 -119.2300 270° West  Level FlightAware Approximate
04:51PM 47.9669 -119.3265 270° West  Level FlightAware Approximate
04:52PM 47.9668 -119.4230 270° West  Level FlightAware Approximate
04:53PM 47.9684 -119.5194 273° West  Level FlightAware Approximate
04:54PM 47.9715 -119.6157 273° West  Level FlightAware Approximate
04:55PM 47.9744 -119.7121 273° West  Level FlightAware Approximate
04:56PM 47.9773 -119.8085 273° West  Level FlightAware Approximate
04:57PM 47.9802 -119.9049 273° West  Level FlightAware Approximate
04:58PM 47.9829 -120.0013 272° West  Level FlightAware Approximate
04:59PM 47.9714 -119.9375 103° East  Level FlightAware Approximate
05:00PM 47.9571 -119.8435 103° East  Level FlightAware Approximate
05:01PM 47.9427 -119.7495 103° East  Level FlightAware Approximate
05:02PM 47.9283 -119.6555 103° East  Level FlightAware Approximate
05:03PM 47.9137 -119.5616 103° East  Level FlightAware Approximate
05:04PM 47.8992 -119.4677 103° East  Level FlightAware Approximate
05:05PM 47.8845 -119.3739 103° East  Level FlightAware Approximate
05:06PM 47.8805 -119.2779 93° East  Level FlightAware Approximate
05:07PM 47.8774 -119.1817 93° East  Level FlightAware Approximate
05:08PM 47.8742 -119.0855 93° East  Level FlightAware Approximate
05:09PM 47.8710 -118.9893 93° East  Level FlightAware Approximate
05:10PM 47.8676 -118.8932 93° East  Level FlightAware Approximate
05:11PM 47.8542 -118.7995 105° East  Level FlightAware Approximate
05:12PM 47.8370 -118.7067 105° East  Level FlightAware Approximate
05:13PM 47.8196 -118.6140 106° East  Level FlightAware Approximate
05:14PM 47.8022 -118.5214 106° East  Level FlightAware Approximate
05:15PM 47.7848 -118.4288 106° East  Level FlightAware Approximate
05:16PM 47.7672 -118.3363 106° East  Level FlightAware Approximate
05:17PM 47.7281 -118.4065 232° Southwest  Level FlightAware Approximate
05:18PM 47.6882 -118.4819 232° Southwest  Level FlightAware Approximate
05:19PM 47.6482 -118.5573 232° Southwest  Level FlightAware Approximate
05:20PM 47.6270 -118.6299 319° Northwest  Level FlightAware Approximate
05:21PM 47.6759 -118.6925 319° Northwest  Level FlightAware Approximate
05:21PM 47.3520 -119.6840 319° Northwest 313 360 16,800  Level FlightAware
05:21PM 47.3710 -119.7380 297° West 314 361 18,800 4,080 Climbing FlightAware
05:25PM 47.2595 -119.4498 120° Southeast  Level Estimated